Time;durP1;ratioP1;P1;durP2;ratioP2;P2;SDS_P1;SDS_P2;PMS_P1;PMS_P2;Temp;Humidity;BMP_temperature;BMP_pressure;BME280_temperature;BME280_humidity;BME280_pressure;Samples;Min_cycle;Max_cycle;Signal;HPM_P1;HPM_P2
2023/10/31 00:00:56;;;;;;;5.07;2.85;;;12.00;99.90;;;;;;5034192;28;20187;-91
2023/10/31 00:03:27;;;;;;;6.72;3.20;;;12.00;99.90;;;;;;5023385;28;20277;-92
2023/10/31 00:05:57;;;;;;;6.88;3.15;;;12.00;99.90;;;;;;5032004;28;20207;-93
2023/10/31 00:08:53;;;;;;;5.80;3.53;;;12.00;99.90;;;;;;5015647;28;20163;-92
2023/10/31 00:11:20;;;;;;;5.28;3.40;;;12.00;99.90;;;;;;5015701;28;20190;-92
2023/10/31 00:13:46;;;;;;;8.43;3.50;;;12.10;99.90;;;;;;5023787;28;20733;-91
2023/10/31 00:16:14;;;;;;;7.22;3.50;;;12.10;99.90;;;;;;5015579;28;20215;-92
2023/10/31 00:18:40;;;;;;;5.88;3.60;;;12.00;99.90;;;;;;5015648;28;20182;-92
2023/10/31 00:21:14;;;;;;;5.68;3.70;;;12.00;99.90;;;;;;5015593;28;20183;-91
2023/10/31 00:23:44;;;;;;;7.13;3.90;;;12.00;99.90;;;;;;5015326;28;20199;-91
2023/10/31 00:26:10;;;;;;;7.15;3.70;;;12.00;99.90;;;;;;5015805;28;20282;-91
2023/10/31 00:28:37;;;;;;;9.32;3.42;;;12.00;99.90;;;;;;5032778;28;20250;-92
2023/10/31 00:31:05;;;;;;;7.53;3.67;;;12.10;99.90;;;;;;5030862;28;20191;-92
2023/10/31 00:33:31;;;;;;;7.03;3.53;;;12.00;99.90;;;;;;5023926;28;20206;-92
2023/10/31 00:36:01;;;;;;;6.20;3.70;;;12.00;99.90;;;;;;5035067;28;20708;-91
2023/10/31 00:38:27;;;;;;;10.13;3.60;;;12.00;99.90;;;;;;5034867;28;20186;-92
2023/10/31 00:40:58;;;;;;;8.07;3.83;;;12.00;99.90;;;;;;5030440;28;20190;-92
2023/10/31 00:43:29;;;;;;;6.90;3.80;;;12.00;99.90;;;;;;5015047;28;20368;-91
2023/10/31 00:45:54;;;;;;;9.98;3.67;;;12.00;99.90;;;;;;5015029;28;20207;-92
2023/10/31 00:48:37;;;;;;;6.72;3.55;;;12.00;99.90;;;;;;5015020;28;20190;-91
2023/10/31 00:51:04;;;;;;;8.27;3.75;;;12.00;99.90;;;;;;5015105;28;20163;-91
2023/10/31 00:53:30;;;;;;;7.60;3.67;;;12.00;99.90;;;;;;5014738;28;20298;-92
2023/10/31 00:55:57;;;;;;;4.82;3.17;;;12.00;99.90;;;;;;5014860;28;20269;-91
2023/10/31 00:58:28;;;;;;;4.47;3.25;;;12.00;99.90;;;;;;5014862;28;20640;-93
2023/10/31 01:00:56;;;;;;;5.15;3.10;;;12.00;99.90;;;;;;4998843;28;20270;-93
2023/10/31 01:03:24;;;;;;;5.03;3.03;;;12.00;99.90;;;;;;5014610;28;20241;-92
2023/10/31 01:05:49;;;;;;;5.68;3.15;;;12.00;99.90;;;;;;5025694;28;20206;-92
2023/10/31 01:08:16;;;;;;;4.78;2.65;;;12.10;99.90;;;;;;5019439;28;20643;-90
2023/10/31 01:10:46;;;;;;;4.90;2.42;;;12.10;99.90;;;;;;5022677;28;20185;-91
2023/10/31 01:13:50;;;;;;;7.00;2.88;;;12.10;99.90;;;;;;5014473;28;20210;-91
2023/10/31 01:16:19;;;;;;;4.70;2.38;;;12.10;99.90;;;;;;5009525;28;20187;-91
2023/10/31 01:19:01;;;;;;;6.40;3.40;;;12.10;99.90;;;;;;5022531;28;20187;-92
2023/10/31 01:21:27;;;;;;;5.88;2.85;;;12.10;99.90;;;;;;5014453;28;20190;-91
2023/10/31 01:24:02;;;;;;;7.90;2.92;;;12.10;99.90;;;;;;5014860;28;20203;-91
2023/10/31 01:26:35;;;;;;;5.57;2.83;;;12.10;99.90;;;;;;5014389;28;20256;-91
2023/10/31 01:29:01;;;;;;;3.85;2.60;;;12.10;99.90;;;;;;5027631;28;20237;-91
2023/10/31 01:31:28;;;;;;;4.07;2.20;;;12.10;99.90;;;;;;5034010;28;20178;-92
2023/10/31 01:33:53;;;;;;;5.13;2.47;;;12.10;99.90;;;;;;5017668;28;20616;-92
2023/10/31 01:36:34;;;;;;;3.70;2.08;;;12.10;99.90;;;;;;5026744;28;20269;-93
2023/10/31 01:39:00;;;;;;;4.88;2.10;;;12.10;99.90;;;;;;4994390;28;20531;-91
2023/10/31 01:41:28;;;;;;;3.55;1.90;;;12.10;99.90;;;;;;4994425;28;20160;-91
2023/10/31 01:43:54;;;;;;;4.35;2.03;;;12.10;99.90;;;;;;5014418;28;20543;-91
2023/10/31 01:47:07;;;;;;;7.03;2.10;;;12.10;99.90;;;;;;5013800;28;20205;-93
2023/10/31 01:49:45;;;;;;;5.20;2.10;;;12.10;99.90;;;;;;5013812;28;20186;-92
2023/10/31 01:52:17;;;;;;;4.53;1.92;;;12.10;99.90;;;;;;5013434;28;20590;-90
2023/10/31 01:54:43;;;;;;;9.20;2.00;;;12.20;99.90;;;;;;5013960;28;20204;-93
2023/10/31 01:57:22;;;;;;;3.22;1.90;;;12.20;99.90;;;;;;5027652;28;20180;-93
2023/10/31 01:59:48;;;;;;;3.95;1.80;;;12.20;99.90;;;;;;5022480;28;20214;-92
2023/10/31 02:02:15;;;;;;;4.32;1.80;;;12.10;99.90;;;;;;5014911;28;20159;-92
2023/10/31 02:04:41;;;;;;;4.13;2.13;;;12.10;99.90;;;;;;5013652;28;20199;-91
2023/10/31 02:07:22;;;;;;;3.42;1.98;;;12.10;99.90;;;;;;5013663;28;20217;-93
2023/10/31 02:10:01;;;;;;;4.18;1.95;;;12.10;99.90;;;;;;5013562;28;20225;-91
2023/10/31 02:12:43;;;;;;;2.60;1.75;;;12.10;99.90;;;;;;5013678;28;20218;-92
2023/10/31 02:15:11;;;;;;;4.38;2.00;;;12.10;99.90;;;;;;5013582;28;20234;-92
2023/10/31 02:18:01;;;;;;;5.82;2.20;;;12.10;99.90;;;;;;5013436;28;20187;-90
2023/10/31 02:20:35;;;;;;;3.15;1.67;;;12.20;99.90;;;;;;5013440;28;20199;-91
2023/10/31 02:23:03;;;;;;;3.60;1.88;;;12.10;99.90;;;;;;5015567;28;20178;-90
2023/10/31 02:25:31;;;;;;;4.80;1.80;;;12.10;99.90;;;;;;5013389;28;20210;-92
2023/10/31 02:28:01;;;;;;;4.18;2.00;;;12.10;99.90;;;;;;5013415;28;20714;-91
2023/10/31 02:30:41;;;;;;;3.03;1.75;;;12.20;99.90;;;;;;5013513;28;20231;-92
2023/10/31 02:33:25;;;;;;;4.25;1.70;;;12.20;99.90;;;;;;5013370;28;20206;-92
2023/10/31 02:35:51;;;;;;;3.83;2.10;;;12.20;99.90;;;;;;5016665;28;20190;-91
2023/10/31 02:38:17;;;;;;;4.97;1.80;;;12.20;99.90;;;;;;5032984;28;20255;-92
2023/10/31 02:40:46;;;;;;;4.90;1.95;;;12.20;99.90;;;;;;5032914;28;20233;-91
2023/10/31 02:43:12;;;;;;;4.70;2.00;;;12.20;99.90;;;;;;5032921;28;20309;-90
2023/10/31 02:46:01;;;;;;;5.28;2.10;;;12.20;99.90;;;;;;5034059;28;20718;-91
2023/10/31 02:48:52;;;;;;;2.97;1.65;;;12.20;99.90;;;;;;5032766;28;20236;-93
2023/10/31 02:51:17;;;;;;;5.35;2.13;;;12.20;99.90;;;;;;5016574;28;20179;-91
2023/10/31 02:53:47;;;;;;;6.05;1.90;;;12.20;99.90;;;;;;5012920;28;20218;-91
2023/10/31 02:56:15;;;;;;;2.20;1.77;;;12.20;99.90;;;;;;5019286;28;20186;-91
2023/10/31 02:58:46;;;;;;;3.55;1.98;;;12.20;99.90;;;;;;5032824;28;20269;-91
2023/10/31 03:01:20;;;;;;;5.13;2.40;;;12.20;99.90;;;;;;5032807;28;20163;-92
2023/10/31 03:03:57;;;;;;;4.07;2.00;;;12.20;99.90;;;;;;5032673;28;20202;-90
2023/10/31 03:06:23;;;;;;;5.05;2.08;;;12.20;99.90;;;;;;5020537;28;20289;-91
2023/10/31 03:08:49;;;;;;;4.43;2.33;;;12.20;99.90;;;;;;5033048;28;20274;-91
2023/10/31 03:11:34;;;;;;;4.95;2.05;;;12.20;99.90;;;;;;5016888;28;20179;-91
2023/10/31 03:14:11;;;;;;;4.60;2.17;;;12.20;99.90;;;;;;5016598;28;20191;-90
2023/10/31 03:16:38;;;;;;;3.95;2.30;;;12.20;99.90;;;;;;5017988;28;20179;-90
2023/10/31 03:19:05;;;;;;;3.28;1.98;;;12.20;99.90;;;;;;5023003;28;20573;-91
2023/10/31 03:21:30;;;;;;;4.32;2.50;;;12.30;99.90;;;;;;5016492;28;20172;-91
2023/10/31 03:23:59;;;;;;;5.70;2.38;;;12.30;99.90;;;;;;5024595;28;20214;-91
2023/10/31 03:26:45;;;;;;;2.83;2.00;;;12.20;99.90;;;;;;5016412;28;20287;-90
2023/10/31 03:29:19;;;;;;;2.72;2.03;;;12.30;99.90;;;;;;5016455;28;20737;-91
2023/10/31 03:31:45;;;;;;;4.78;2.63;;;12.30;99.90;;;;;;5386216;23;20246;-87
2023/10/31 03:34:10;;;;;;;5.68;2.85;;;12.20;99.90;;;;;;5017809;28;20183;-85
2023/10/31 03:36:37;;;;;;;5.68;3.08;;;12.20;99.90;;;;;;5017783;28;20179;-87
2023/10/31 03:39:02;;;;;;;4.72;3.15;;;12.20;99.90;;;;;;5017798;28;20175;-87
2023/10/31 03:41:28;;;;;;;4.45;3.08;;;12.20;99.90;;;;;;5016162;28;20286;-84
2023/10/31 03:43:54;;;;;;;6.72;3.42;;;12.20;99.90;;;;;;5016329;28;20183;-85
2023/10/31 03:46:20;;;;;;;7.03;3.50;;;12.20;99.90;;;;;;5016055;28;20618;-86
2023/10/31 03:48:45;;;;;;;5.35;3.45;;;12.20;99.90;;;;;;5016404;28;20179;-87
2023/10/31 03:51:11;;;;;;;5.80;3.33;;;12.20;99.90;;;;;;5017467;28;20179;-86
2023/10/31 03:53:37;;;;;;;4.43;3.00;;;12.20;99.90;;;;;;5007919;28;20237;-85
2023/10/31 03:56:03;;;;;;;5.70;2.65;;;12.20;99.90;;;;;;5017464;28;20183;-87
2023/10/31 03:58:29;;;;;;;5.32;2.90;;;12.20;99.90;;;;;;5016112;28;20198;-86
2023/10/31 04:00:54;;;;;;;3.75;2.78;;;12.20;99.90;;;;;;5012339;28;20580;-86
2023/10/31 04:03:20;;;;;;;5.75;3.10;;;12.20;99.90;;;;;;5013056;28;20172;-88
2023/10/31 04:05:46;;;;;;;5.78;3.30;;;12.20;99.90;;;;;;5015912;28;20709;-86
2023/10/31 04:08:12;;;;;;;5.43;3.70;;;12.20;99.90;;;;;;5015722;28;20215;-86
2023/10/31 04:10:37;;;;;;;3.38;3.08;;;12.20;99.90;;;;;;5015838;28;20521;-86
2023/10/31 04:13:03;;;;;;;4.32;3.10;;;12.20;99.90;;;;;;5015809;28;20190;-87
2023/10/31 04:15:29;;;;;;;4.45;3.60;;;12.20;99.90;;;;;;5016847;28;20178;-87
2023/10/31 04:17:55;;;;;;;4.00;3.00;;;12.20;99.90;;;;;;5016628;28;20186;-85
2023/10/31 04:20:20;;;;;;;4.35;3.22;;;12.20;99.90;;;;;;5015842;28;20384;-89
2023/10/31 04:22:46;;;;;;;6.80;3.45;;;12.20;99.90;;;;;;5016763;28;20179;-86
2023/10/31 04:25:12;;;;;;;9.82;3.95;;;12.20;99.90;;;;;;5016711;28;20520;-86
2023/10/31 04:27:37;;;;;;;8.18;3.85;;;12.20;99.90;;;;;;5007419;28;20195;-84
2023/10/31 04:30:04;;;;;;;6.40;3.63;;;12.20;99.90;;;;;;5015567;28;20190;-86
2023/10/31 04:32:29;;;;;;;6.55;4.05;;;12.20;99.90;;;;;;5007271;28;20305;-86
2023/10/31 04:34:55;;;;;;;7.15;4.20;;;12.20;99.90;;;;;;5016939;28;20617;-89
2023/10/31 04:37:21;;;;;;;4.35;3.78;;;12.20;99.90;;;;;;5008183;28;20183;-89
2023/10/31 04:39:46;;;;;;;4.63;3.55;;;12.20;99.90;;;;;;5014544;28;20587;-85
2023/10/31 04:42:12;;;;;;;8.70;3.15;;;12.20;99.90;;;;;;5016735;28;20221;-88
2023/10/31 04:44:38;;;;;;;2.88;2.22;;;12.20;99.90;;;;;;5015249;28;20190;-88
2023/10/31 04:47:04;;;;;;;2.55;2.03;;;12.00;99.90;;;;;;5014725;28;20245;-84
2023/10/31 04:49:29;;;;;;;2.05;1.85;;;11.90;99.90;;;;;;5015242;28;20183;-89
2023/10/31 04:51:55;;;;;;;2.22;1.80;;;11.80;99.90;;;;;;5015331;28;20190;-86
2023/10/31 04:54:21;;;;;;;2.80;2.00;;;11.70;99.90;;;;;;5015038;28;20186;-86
2023/10/31 04:56:47;;;;;;;4.65;2.10;;;11.70;99.90;;;;;;5007168;28;20183;-84
2023/10/31 04:59:13;;;;;;;3.45;2.13;;;11.60;99.90;;;;;;5015256;28;20194;-87
2023/10/31 05:01:39;;;;;;;2.10;1.90;;;11.50;99.90;;;;;;5006902;28;20183;-89
2023/10/31 05:04:06;;;;;;;2.85;1.88;;;11.50;99.90;;;;;;5010473;28;20176;-92
2023/10/31 05:06:32;;;;;;;2.13;1.95;;;11.50;99.90;;;;;;5012331;28;20218;-89
2023/10/31 05:08:58;;;;;;;3.20;1.83;;;11.40;99.90;;;;;;5014860;28;20187;-86
2023/10/31 05:11:24;;;;;;;3.25;1.90;;;11.40;99.90;;;;;;5015164;28;20266;-91
2023/10/31 05:13:50;;;;;;;1.95;1.73;;;11.40;99.90;;;;;;5014610;28;20313;-87
2023/10/31 05:16:16;;;;;;;1.73;1.55;;;11.40;99.90;;;;;;4999912;28;20187;-85
2023/10/31 05:18:41;;;;;;;1.70;1.60;;;11.40;99.90;;;;;;4996919;28;20307;-88
2023/10/31 05:21:07;;;;;;;1.88;1.75;;;11.30;99.90;;;;;;5006740;28;20198;-87
2023/10/31 05:23:36;;;;;;;2.00;1.80;;;11.30;99.90;;;;;;5015411;28;20183;-90
2023/10/31 05:26:05;;;;;;;1.60;1.50;;;11.40;99.90;;;;;;5014933;28;20273;-88
2023/10/31 05:28:30;;;;;;;1.77;1.67;;;11.40;99.90;;;;;;5006087;28;20218;-89
2023/10/31 05:30:56;;;;;;;1.60;1.50;;;11.30;99.90;;;;;;5010680;28;20255;-89
2023/10/31 05:33:24;;;;;;;5.57;1.40;;;11.30;99.90;;;;;;5011723;28;20186;-88
2023/10/31 05:35:50;;;;;;;1.70;1.60;;;11.40;99.90;;;;;;5014357;28;20266;-88
2023/10/31 05:38:16;;;;;;;2.55;1.33;;;11.40;99.90;;;;;;5014330;28;20278;-89
2023/10/31 05:40:41;;;;;;;1.38;1.27;;;11.30;99.90;;;;;;5014226;28;20211;-84
2023/10/31 05:43:09;;;;;;;2.53;1.20;;;11.30;99.90;;;;;;5014348;28;20214;-85
2023/10/31 05:45:35;;;;;;;2.45;1.10;;;11.30;99.90;;;;;;5015376;28;20234;-88
2023/10/31 05:48:01;;;;;;;3.75;1.27;;;11.30;99.90;;;;;;5007215;28;20179;-89
2023/10/31 05:50:26;;;;;;;1.58;0.88;;;11.30;99.90;;;;;;5014192;28;20213;-89
2023/10/31 05:52:52;;;;;;;4.03;0.80;;;11.30;99.90;;;;;;5002654;28;20194;-87
2023/10/31 05:55:18;;;;;;;0.82;0.70;;;11.20;99.90;;;;;;5009221;28;20226;-85
2023/10/31 05:57:43;;;;;;;1.35;0.93;;;11.20;99.90;;;;;;5015031;28;20258;-88
2023/10/31 06:00:09;;;;;;;2.30;0.63;;;11.20;99.90;;;;;;5000068;28;20524;-87
2023/10/31 06:02:35;;;;;;;2.78;0.50;;;11.20;99.90;;;;;;5004542;28;20171;-85
2023/10/31 06:05:07;;;;;;;0.73;0.50;;;11.20;99.90;;;;;;5010545;28;20685;-87
2023/10/31 06:07:34;;;;;;;1.40;0.50;;;11.20;99.90;;;;;;5012367;28;20241;-84
2023/10/31 06:09:59;;;;;;;1.67;0.60;;;11.10;99.90;;;;;;5013746;28;20610;-84
2023/10/31 06:12:25;;;;;;;0.50;0.40;;;11.20;99.90;;;;;;5014168;28;20274;-86
2023/10/31 06:14:51;;;;;;;1.45;0.60;;;11.10;99.90;;;;;;5013289;28;20187;-86
2023/10/31 06:17:17;;;;;;;1.08;0.50;;;11.10;99.90;;;;;;4998776;28;20191;-86
2023/10/31 06:19:45;;;;;;;2.25;0.57;;;11.10;99.90;;;;;;5011901;28;20282;-85
2023/10/31 06:22:12;;;;;;;1.63;0.38;;;11.10;99.90;;;;;;5013561;28;20187;-87
2023/10/31 06:24:40;;;;;;;1.02;0.30;;;11.10;99.90;;;;;;5013525;28;20187;-87
2023/10/31 06:27:06;;;;;;;0.43;0.32;;;11.00;99.90;;;;;;5013118;28;20611;-85
2023/10/31 06:29:31;;;;;;;0.50;0.30;;;11.00;99.90;;;;;;5013385;28;20218;-84
2023/10/31 06:31:57;;;;;;;3.00;0.40;;;11.00;99.90;;;;;;5005279;28;20239;-86
2023/10/31 06:34:23;;;;;;;1.05;0.47;;;11.10;99.90;;;;;;5013446;28;20230;-85
2023/10/31 06:36:48;;;;;;;1.52;0.30;;;11.10;99.90;;;;;;5014317;28;20183;-86
2023/10/31 06:39:14;;;;;;;1.42;0.40;;;11.10;99.90;;;;;;5013852;28;20183;-83
2023/10/31 06:41:41;;;;;;;1.65;0.47;;;11.10;99.90;;;;;;5018532;28;20540;-87
2023/10/31 06:44:07;;;;;;;1.15;0.45;;;11.10;99.90;;;;;;5017414;28;20178;-86
2023/10/31 06:46:32;;;;;;;2.17;0.40;;;11.10;99.90;;;;;;5016921;28;20207;-85
2023/10/31 06:48:58;;;;;;;1.92;0.20;;;11.10;99.90;;;;;;5017278;28;20183;-86
2023/10/31 06:51:24;;;;;;;0.40;0.30;;;11.00;99.90;;;;;;5017108;28;20183;-86
2023/10/31 06:53:51;;;;;;;0.52;0.38;;;11.00;99.90;;;;;;5018019;28;20614;-84
2023/10/31 06:56:17;;;;;;;0.82;0.43;;;11.00;99.90;;;;;;5017123;28;20182;-89
2023/10/31 06:58:42;;;;;;;1.17;0.50;;;11.00;99.90;;;;;;5017041;28;20190;-85
2023/10/31 07:01:09;;;;;;;4.68;0.40;;;11.00;99.90;;;;;;5011949;28;20278;-91
2023/10/31 07:03:35;;;;;;;2.85;0.50;;;11.00;99.90;;;;;;5006563;28;20186;-88
2023/10/31 07:06:00;;;;;;;1.17;0.52;;;11.00;99.90;;;;;;5016798;28;20207;-88
2023/10/31 07:08:26;;;;;;;1.50;0.60;;;11.00;99.90;;;;;;5017092;28;20523;-91
2023/10/31 07:10:52;;;;;;;3.70;0.50;;;10.90;99.90;;;;;;5013968;28;20188;-90
2023/10/31 07:13:17;;;;;;;1.73;0.60;;;10.90;99.90;;;;;;5007269;28;20188;-87
2023/10/31 07:15:45;;;;;;;1.00;0.65;;;10.90;99.90;;;;;;5007686;28;20186;-87
2023/10/31 07:18:11;;;;;;;1.88;0.90;;;10.90;99.90;;;;;;5017736;28;20522;-85
2023/10/31 07:20:36;;;;;;;1.55;0.60;;;10.90;99.90;;;;;;5016858;28;20179;-85
2023/10/31 07:23:02;;;;;;;1.15;0.63;;;10.90;99.90;;;;;;5016812;28;20197;-86
2023/10/31 07:25:35;;;;;;;6.93;0.98;;;10.90;99.90;;;;;;5017703;28;20676;-87
2023/10/31 07:28:00;;;;;;;2.22;0.70;;;11.00;99.90;;;;;;5016480;28;20183;-84
2023/10/31 07:30:26;;;;;;;2.35;0.80;;;11.00;99.90;;;;;;5016343;28;20186;-85
2023/10/31 07:32:52;;;;;;;2.47;0.90;;;11.00;99.90;;;;;;5000177;28;20278;-85
2023/10/31 07:35:19;;;;;;;3.97;0.75;;;11.00;99.90;;;;;;5016779;28;20179;-89
2023/10/31 07:37:45;;;;;;;1.33;0.77;;;10.90;99.90;;;;;;5016239;28;20282;-91
2023/10/31 07:40:11;;;;;;;2.30;0.80;;;11.00;99.90;;;;;;5016334;28;20195;-84
2023/10/31 07:42:37;;;;;;;2.78;0.80;;;10.90;99.90;;;;;;5016197;28;20183;-85
2023/10/31 07:45:05;;;;;;;1.40;0.80;;;10.90;99.90;;;;;;5016501;28;20191;-89
2023/10/31 07:47:31;;;;;;;5.28;1.02;;;10.80;99.90;;;;;;5007859;28;20210;-87
2023/10/31 07:49:57;;;;;;;1.70;0.90;;;10.80;99.90;;;;;;5015816;28;20625;-87
2023/10/31 07:52:22;;;;;;;1.88;0.60;;;10.90;99.90;;;;;;5016717;28;20190;-90
2023/10/31 07:54:49;;;;;;;2.17;1.02;;;10.80;99.90;;;;;;5013780;28;20184;-85
2023/10/31 07:57:15;;;;;;;2.45;0.80;;;10.80;99.90;;;;;;5010765;28;20211;-86
2023/10/31 07:59:40;;;;;;;1.67;0.90;;;10.90;99.90;;;;;;5017003;28;20211;-85
2023/10/31 08:02:06;;;;;;;3.78;0.80;;;10.90;99.90;;;;;;5002808;28;20230;-90
2023/10/31 08:04:32;;;;;;;3.22;1.15;;;10.80;99.90;;;;;;5012988;28;20209;-87
2023/10/31 08:06:58;;;;;;;5.30;0.95;;;10.90;99.90;;;;;;5007610;28;20645;-87
2023/10/31 08:09:23;;;;;;;1.83;0.93;;;10.90;99.90;;;;;;5016078;28;20183;-87
2023/10/31 08:11:49;;;;;;;3.92;0.90;;;10.90;99.90;;;;;;5016926;28;20565;-85
2023/10/31 08:14:15;;;;;;;3.63;1.13;;;10.90;99.90;;;;;;5009323;28;20183;-85
2023/10/31 08:16:42;;;;;;;2.63;1.00;;;11.00;99.90;;;;;;5013426;28;20650;-87
2023/10/31 08:19:07;;;;;;;2.15;1.00;;;11.00;99.90;;;;;;5015633;28;20183;-86
2023/10/31 08:21:35;;;;;;;4.70;1.20;;;11.00;99.90;;;;;;5016726;28;20191;-86
2023/10/31 08:24:03;;;;;;;3.58;1.20;;;11.10;99.90;;;;;;5008588;28;20184;-86
2023/10/31 08:26:29;;;;;;;1.85;0.88;;;11.10;99.90;;;;;;5007562;28;20729;-84
2023/10/31 08:28:55;;;;;;;4.25;1.05;;;11.10;99.90;;;;;;5015373;28;20183;-87
2023/10/31 08:31:20;;;;;;;3.42;1.00;;;11.20;99.90;;;;;;5008546;28;20250;-86
2023/10/31 08:33:46;;;;;;;2.45;0.93;;;11.20;99.90;;;;;;5012986;28;20241;-86
2023/10/31 08:36:12;;;;;;;3.70;1.27;;;11.10;99.90;;;;;;5015138;28;20203;-86
2023/10/31 08:38:38;;;;;;;2.95;0.90;;;11.20;99.90;;;;;;5015153;28;20226;-86
2023/10/31 08:41:04;;;;;;;1.55;1.00;;;11.10;99.90;;;;;;5015243;28;20198;-85
2023/10/31 08:43:29;;;;;;;1.70;0.90;;;11.10;99.90;;;;;;5014939;28;20262;-87
2023/10/31 08:45:56;;;;;;;3.80;1.10;;;11.20;99.90;;;;;;5015186;28;20322;-87
2023/10/31 08:48:22;;;;;;;1.75;0.75;;;11.10;99.90;;;;;;5015003;28;20286;-90
2023/10/31 08:50:48;;;;;;;3.65;0.98;;;11.10;99.90;;;;;;5015400;28;20702;-88
2023/10/31 08:53:14;;;;;;;4.25;0.75;;;11.20;99.90;;;;;;5015423;28;20277;-87
2023/10/31 08:55:45;;;;;;;2.35;0.70;;;11.10;99.90;;;;;;5015303;28;20581;-85
2023/10/31 08:58:13;;;;;;;3.78;0.80;;;11.10;99.90;;;;;;5015335;28;20190;-88
2023/10/31 09:00:39;;;;;;;3.35;0.70;;;11.10;99.90;;;;;;5014238;28;20179;-88
2023/10/31 09:03:05;;;;;;;3.95;0.70;;;11.10;99.90;;;;;;5007566;28;20302;-89
2023/10/31 09:05:38;;;;;;;2.30;0.80;;;11.10;99.90;;;;;;5014317;28;20662;-87
2023/10/31 09:08:03;;;;;;;3.17;0.77;;;11.20;99.90;;;;;;5008720;28;20179;-88
2023/10/31 09:10:29;;;;;;;2.13;0.63;;;11.20;99.90;;;;;;5014898;28;20577;-87
2023/10/31 09:12:55;;;;;;;4.13;0.60;;;11.30;99.90;;;;;;5008330;28;20171;-87
2023/10/31 09:15:26;;;;;;;3.60;0.60;;;11.40;99.90;;;;;;5015066;28;20183;-88
2023/10/31 09:17:51;;;;;;;1.95;0.77;;;11.50;99.90;;;;;;5014459;28;20186;-89
2023/10/31 09:20:17;;;;;;;1.88;0.60;;;11.60;99.90;;;;;;5015154;28;20532;-87
2023/10/31 09:22:43;;;;;;;1.02;0.50;;;11.70;99.90;;;;;;5014686;28;20257;-88
2023/10/31 09:25:12;;;;;;;1.23;0.52;;;11.70;99.90;;;;;;5009522;28;20179;-89
2023/10/31 09:27:40;;;;;;;0.75;0.47;;;11.70;99.90;;;;;;4995086;28;20194;-90
2023/10/31 09:30:07;;;;;;;5.72;0.70;;;11.50;99.90;;;;;;5008264;28;20237;-88
2023/10/31 09:32:32;;;;;;;2.17;0.40;;;11.50;99.90;;;;;;5013826;28;20304;-88
2023/10/31 09:34:58;;;;;;;0.40;0.30;;;11.50;99.90;;;;;;5014715;28;20258;-88
2023/10/31 09:37:28;;;;;;;1.10;0.50;;;11.50;99.90;;;;;;5014498;28;20629;-88
2023/10/31 09:39:54;;;;;;;6.88;0.60;;;11.60;99.90;;;;;;5014663;28;20282;-88
2023/10/31 09:42:20;;;;;;;1.73;0.60;;;11.70;99.90;;;;;;5014623;28;20219;-87
2023/10/31 09:44:45;;;;;;;1.60;0.73;;;11.80;99.90;;;;;;5014638;28;20215;-89
2023/10/31 09:47:12;;;;;;;2.15;0.40;;;11.90;99.90;;;;;;5014325;28;20298;-88
2023/10/31 09:49:38;;;;;;;1.10;0.50;;;11.90;99.90;;;;;;5014616;28;20175;-90
2023/10/31 09:52:04;;;;;;;0.40;0.40;;;12.10;99.90;;;;;;5014404;28;20637;-87
2023/10/31 09:54:29;;;;;;;0.95;0.40;;;12.10;99.90;;;;;;5014500;28;20571;-90
2023/10/31 09:56:56;;;;;;;0.55;0.40;;;12.20;99.90;;;;;;5014233;28;20217;-88
2023/10/31 09:59:22;;;;;;;0.93;0.40;;;12.20;99.90;;;;;;5014209;28;20191;-88
2023/10/31 10:01:48;;;;;;;2.30;0.47;;;12.30;99.90;;;;;;5006332;28;20255;-86
2023/10/31 10:04:14;;;;;;;1.75;0.50;;;12.20;99.90;;;;;;5014347;28;20179;-89
2023/10/31 10:07:02;;;;;;;3.78;0.57;;;12.20;99.90;;;;;;5013985;28;20211;-88
2023/10/31 10:09:29;;;;;;;1.38;0.55;;;12.20;99.90;;;;;;5014361;28;20187;-87
2023/10/31 10:11:56;;;;;;;0.77;0.43;;;12.20;99.90;;;;;;5014198;28;20182;-88
2023/10/31 10:14:27;;;;;;;2.38;0.50;;;12.10;99.90;;;;;;5014015;28;20193;-88
2023/10/31 10:16:52;;;;;;;1.58;0.50;;;12.10;99.90;;;;;;5013675;28;20189;-89
2023/10/31 10:19:20;;;;;;;1.60;0.60;;;12.00;99.90;;;;;;5015515;28;20183;-85
2023/10/31 10:21:55;;;;;;;2.17;0.50;;;11.90;99.90;;;;;;5003240;28;20179;-88
2023/10/31 10:24:22;;;;;;;4.68;0.50;;;11.90;99.90;;;;;;5010494;28;20241;-89
2023/10/31 10:26:49;;;;;;;1.10;0.73;;;11.70;99.90;;;;;;5007038;28;20294;-88
2023/10/31 10:29:15;;;;;;;0.70;0.40;;;11.60;99.90;;;;;;5015287;28;20553;-87
2023/10/31 10:31:42;;;;;;;1.35;0.60;;;11.60;99.90;;;;;;5004152;28;20285;-88
2023/10/31 10:34:09;;;;;;;2.17;0.40;;;11.60;99.90;;;;;;4999365;28;20255;-87
2023/10/31 10:36:36;;;;;;;2.30;0.50;;;11.40;99.90;;;;;;5013866;28;20218;-88
2023/10/31 10:39:03;;;;;;;1.45;0.47;;;11.40;99.90;;;;;;5009573;28;20219;-91
2023/10/31 10:41:29;;;;;;;0.85;0.50;;;11.30;99.90;;;;;;4994432;28;20226;-87
2023/10/31 10:44:03;;;;;;;2.45;0.50;;;11.40;99.90;;;;;;5010451;28;20191;-89
2023/10/31 10:46:35;;;;;;;0.75;0.50;;;11.40;99.90;;;;;;4995319;28;20227;-90
2023/10/31 10:49:05;;;;;;;0.40;0.30;;;11.40;99.90;;;;;;4994111;28;20180;-88
2023/10/31 10:51:58;;;;;;;0.95;0.30;;;11.40;99.90;;;;;;5011960;28;20186;-87
2023/10/31 10:54:37;;;;;;;0.30;0.30;;;11.40;99.90;;;;;;5013825;28;20202;-92
2023/10/31 10:57:19;;;;;;;0.52;0.28;;;11.50;99.90;;;;;;5000140;28;20270;-87
2023/10/31 10:59:50;;;;;;;0.55;0.30;;;11.60;99.90;;;;;;5012944;28;20179;-85
2023/10/31 11:02:18;;;;;;;0.55;0.32;;;11.80;99.90;;;;;;5005226;28;20247;-84
2023/10/31 11:04:44;;;;;;;3.42;0.52;;;11.90;99.90;;;;;;5013270;28;20181;-85
2023/10/31 11:07:12;;;;;;;1.25;0.30;;;11.80;99.90;;;;;;5013339;28;20290;-89
2023/10/31 11:09:38;;;;;;;0.35;0.30;;;11.90;99.90;;;;;;5013451;28;20184;-87
2023/10/31 11:12:04;;;;;;;0.63;0.30;;;11.80;99.90;;;;;;5014757;28;20175;-88
2023/10/31 11:14:31;;;;;;;0.20;0.20;;;11.90;99.90;;;;;;5013447;28;20274;-86
2023/10/31 11:17:09;;;;;;;1.88;0.30;;;11.90;99.90;;;;;;5013223;28;20183;-87
2023/10/31 11:19:36;;;;;;;2.10;0.40;;;11.80;99.90;;;;;;5014282;28;20214;-88
2023/10/31 11:22:02;;;;;;;2.83;0.40;;;11.80;99.90;;;;;;5013383;28;20592;-87
2023/10/31 11:24:37;;;;;;;0.40;0.20;;;11.80;99.90;;;;;;5013137;28;20183;-85
2023/10/31 11:27:05;;;;;;;0.45;0.30;;;11.70;99.90;;;;;;5016229;28;20290;-86
2023/10/31 11:29:31;;;;;;;0.40;0.40;;;11.60;99.90;;;;;;5008806;28;20521;-88
2023/10/31 11:31:57;;;;;;;0.80;0.22;;;11.50;99.90;;;;;;5001074;28;20262;-87
2023/10/31 11:34:27;;;;;;;1.35;0.50;;;11.40;99.90;;;;;;5009224;28;20207;-87
2023/10/31 11:36:53;;;;;;;0.52;0.40;;;11.40;99.90;;;;;;5016784;28;20563;-88
2023/10/31 11:39:25;;;;;;;0.63;0.32;;;11.40;99.90;;;;;;5016703;28;20208;-86
2023/10/31 11:41:55;;;;;;;2.90;0.30;;;11.50;99.90;;;;;;5016659;28;20194;-87
2023/10/31 11:44:27;;;;;;;1.95;0.40;;;11.50;99.90;;;;;;5016637;28;20232;-87
2023/10/31 11:46:58;;;;;;;1.38;0.40;;;11.60;99.90;;;;;;5016210;28;20229;-86
2023/10/31 11:49:47;;;;;;;1.15;0.40;;;11.70;99.90;;;;;;5017630;28;20206;-87
2023/10/31 11:52:18;;;;;;;0.85;0.30;;;11.80;99.90;;;;;;5016425;28;20215;-88
2023/10/31 11:54:43;;;;;;;0.68;0.40;;;11.80;99.90;;;;;;5017622;28;20198;-88
2023/10/31 11:57:28;;;;;;;2.58;0.70;;;11.80;99.90;;;;;;5016354;28;20175;-89
2023/10/31 11:59:54;;;;;;;1.13;0.50;;;11.80;99.90;;;;;;5005341;28;20187;-88
2023/10/31 12:02:20;;;;;;;0.98;0.57;;;11.70;99.90;;;;;;5003765;28;20179;-88
2023/10/31 12:04:46;;;;;;;1.23;0.40;;;11.70;99.90;;;;;;5016161;28;20313;-88
2023/10/31 12:07:12;;;;;;;0.73;0.43;;;11.80;99.90;;;;;;5017273;28;20219;-86
2023/10/31 12:09:48;;;;;;;2.55;0.60;;;11.80;99.90;;;;;;5016296;28;20201;-88
2023/10/31 12:12:14;;;;;;;4.65;0.68;;;11.80;99.90;;;;;;5016393;28;20236;-91
2023/10/31 12:14:39;;;;;;;2.38;0.80;;;11.90;99.90;;;;;;5016142;28;20211;-87
2023/10/31 12:17:09;;;;;;;1.27;0.40;;;11.90;99.90;;;;;;5016030;28;20187;-87
2023/10/31 12:19:35;;;;;;;1.88;0.70;;;12.00;99.90;;;;;;5017322;28;20234;-88
2023/10/31 12:22:02;;;;;;;2.08;0.70;;;12.00;99.90;;;;;;5015922;28;20183;-87
2023/10/31 12:24:28;;;;;;;0.40;0.32;;;12.00;99.90;;;;;;5008003;28;20516;-87
2023/10/31 12:26:54;;;;;;;1.48;0.60;;;12.10;99.90;;;;;;5017055;28;20210;-88
2023/10/31 12:29:20;;;;;;;1.23;0.50;;;12.20;99.90;;;;;;5010380;28;20180;-92
2023/10/31 12:31:51;;;;;;;1.17;0.80;;;12.20;99.90;;;;;;5004329;28;20270;-89
2023/10/31 12:34:20;;;;;;;2.45;0.60;;;12.20;99.90;;;;;;5011287;28;20203;-89
2023/10/31 12:36:47;;;;;;;2.17;0.70;;;12.40;99.90;;;;;;5016348;28;20175;-88
2023/10/31 12:39:15;;;;;;;3.45;0.40;;;12.30;99.90;;;;;;5015954;28;20179;-88
2023/10/31 12:41:41;;;;;;;1.55;0.60;;;12.40;99.90;;;;;;5015750;28;20179;-89
2023/10/31 12:44:11;;;;;;;0.90;0.50;;;12.40;99.90;;;;;;5015414;28;20183;-88
2023/10/31 12:46:40;;;;;;;0.80;0.38;;;12.30;99.90;;;;;;5008483;28;20208;-88
2023/10/31 12:49:33;;;;;;;2.55;0.60;;;12.30;99.90;;;;;;5015100;28;20179;-89
2023/10/31 12:52:01;;;;;;;1.35;0.60;;;12.30;99.90;;;;;;5011713;28;20195;-88
2023/10/31 12:54:32;;;;;;;2.55;0.57;;;12.20;99.90;;;;;;5015242;28;20182;-87